sensor_id;sensor_type;location;lat;lon;timestamp;temperature;humidity
25046;DHT22;13044;49.304;12.840;2023-07-28T00:02:04;17.50;99.90
25046;DHT22;13044;49.304;12.840;2023-07-28T00:04:33;17.50;99.90
25046;DHT22;13044;49.304;12.840;2023-07-28T00:07:00;17.50;99.90
25046;DHT22;13044;49.304;12.840;2023-07-28T00:09:27;17.50;99.90
25046;DHT22;13044;49.304;12.840;2023-07-28T00:11:57;17.50;99.90
25046;DHT22;13044;49.304;12.840;2023-07-28T00:14:25;17.50;99.90
25046;DHT22;13044;49.304;12.840;2023-07-28T00:16:53;17.50;99.90
25046;DHT22;13044;49.304;12.840;2023-07-28T00:19:21;17.50;99.90
25046;DHT22;13044;49.304;12.840;2023-07-28T00:21:49;17.50;99.90
25046;DHT22;13044;49.304;12.840;2023-07-28T00:24:17;17.50;99.90
25046;DHT22;13044;49.304;12.840;2023-07-28T00:26:45;17.50;99.90
25046;DHT22;13044;49.304;12.840;2023-07-28T00:29:12;17.50;99.90
25046;DHT22;13044;49.304;12.840;2023-07-28T00:31:38;17.50;99.90
25046;DHT22;13044;49.304;12.840;2023-07-28T00:34:05;17.40;99.90
25046;DHT22;13044;49.304;12.840;2023-07-28T00:36:32;17.40;99.90
25046;DHT22;13044;49.304;12.840;2023-07-28T00:38:59;17.40;99.90
25046;DHT22;13044;49.304;12.840;2023-07-28T00:41:26;17.40;99.90
25046;DHT22;13044;49.304;12.840;2023-07-28T00:43:53;17.40;99.90
25046;DHT22;13044;49.304;12.840;2023-07-28T00:46:20;17.40;99.90
25046;DHT22;13044;49.304;12.840;2023-07-28T00:48:48;17.40;99.90
25046;DHT22;13044;49.304;12.840;2023-07-28T00:51:15;17.40;99.90
25046;DHT22;13044;49.304;12.840;2023-07-28T00:53:43;17.50;99.90
25046;DHT22;13044;49.304;12.840;2023-07-28T00:56:11;17.50;99.90
25046;DHT22;13044;49.304;12.840;2023-07-28T00:58:38;17.50;99.90
25046;DHT22;13044;49.304;12.840;2023-07-28T01:01:05;17.50;99.90
25046;DHT22;13044;49.304;12.840;2023-07-28T01:03:31;17.50;99.90
25046;DHT22;13044;49.304;12.840;2023-07-28T01:06:35;17.40;99.90
25046;DHT22;13044;49.304;12.840;2023-07-28T01:09:10;17.50;99.90
25046;DHT22;13044;49.304;12.840;2023-07-28T01:11:55;17.40;99.90
25046;DHT22;13044;49.304;12.840;2023-07-28T01:14:23;17.40;99.90
25046;DHT22;13044;49.304;12.840;2023-07-28T01:16:51;17.40;99.90
25046;DHT22;13044;49.304;12.840;2023-07-28T01:19:20;17.40;99.90
25046;DHT22;13044;49.304;12.840;2023-07-28T01:22:04;17.40;99.90
25046;DHT22;13044;49.304;12.840;2023-07-28T01:27:18;17.40;99.90
25046;DHT22;13044;49.304;12.840;2023-07-28T01:29:46;17.30;99.90
25046;DHT22;13044;49.304;12.840;2023-07-28T01:32:14;17.30;99.90
25046;DHT22;13044;49.304;12.840;2023-07-28T01:34:41;17.30;99.90
25046;DHT22;13044;49.304;12.840;2023-07-28T01:37:08;17.30;99.90
25046;DHT22;13044;49.304;12.840;2023-07-28T01:39:34;17.30;99.90
25046;DHT22;13044;49.304;12.840;2023-07-28T01:42:01;17.30;99.90
25046;DHT22;13044;49.304;12.840;2023-07-28T01:44:28;17.30;99.90
25046;DHT22;13044;49.304;12.840;2023-07-28T01:46:55;17.30;99.90
25046;DHT22;13044;49.304;12.840;2023-07-28T01:49:22;17.40;99.90
25046;DHT22;13044;49.304;12.840;2023-07-28T01:51:49;17.40;99.90
25046;DHT22;13044;49.304;12.840;2023-07-28T01:54:15;17.40;99.90
25046;DHT22;13044;49.304;12.840;2023-07-28T01:56:42;17.40;99.90
25046;DHT22;13044;49.304;12.840;2023-07-28T01:59:09;17.50;99.90
25046;DHT22;13044;49.304;12.840;2023-07-28T02:01:36;17.40;99.90
25046;DHT22;13044;49.304;12.840;2023-07-28T02:04:03;17.50;99.90
25046;DHT22;13044;49.304;12.840;2023-07-28T02:06:31;17.40;99.90
25046;DHT22;13044;49.304;12.840;2023-07-28T02:08:59;17.40;99.90
25046;DHT22;13044;49.304;12.840;2023-07-28T02:11:25;17.40;99.90
25046;DHT22;13044;49.304;12.840;2023-07-28T02:13:52;17.40;99.90
25046;DHT22;13044;49.304;12.840;2023-07-28T02:16:19;17.40;99.90
25046;DHT22;13044;49.304;12.840;2023-07-28T02:18:46;17.50;99.90
25046;DHT22;13044;49.304;12.840;2023-07-28T02:21:13;17.50;99.90
25046;DHT22;13044;49.304;12.840;2023-07-28T02:23:40;17.50;99.90
25046;DHT22;13044;49.304;12.840;2023-07-28T02:26:07;17.50;99.90
25046;DHT22;13044;49.304;12.840;2023-07-28T02:28:34;17.50;99.90
25046;DHT22;13044;49.304;12.840;2023-07-28T02:31:01;17.50;99.90
25046;DHT22;13044;49.304;12.840;2023-07-28T02:33:28;17.50;99.90
25046;DHT22;13044;49.304;12.840;2023-07-28T02:36:02;17.50;99.90
25046;DHT22;13044;49.304;12.840;2023-07-28T02:38:32;17.50;99.90
25046;DHT22;13044;49.304;12.840;2023-07-28T02:40:59;17.50;99.90
25046;DHT22;13044;49.304;12.840;2023-07-28T02:43:26;17.50;99.90
25046;DHT22;13044;49.304;12.840;2023-07-28T02:45:54;17.50;99.90
25046;DHT22;13044;49.304;12.840;2023-07-28T02:48:22;17.50;99.90
25046;DHT22;13044;49.304;12.840;2023-07-28T02:50:50;17.50;99.90
25046;DHT22;13044;49.304;12.840;2023-07-28T02:53:18;17.50;99.90
25046;DHT22;13044;49.304;12.840;2023-07-28T02:55:46;17.50;99.90
25046;DHT22;13044;49.304;12.840;2023-07-28T02:58:14;17.50;99.90
25046;DHT22;13044;49.304;12.840;2023-07-28T03:00:43;17.50;99.90
25046;DHT22;13044;49.304;12.840;2023-07-28T03:03:11;17.50;99.90
25046;DHT22;13044;49.304;12.840;2023-07-28T03:05:39;17.50;99.90
25046;DHT22;13044;49.304;12.840;2023-07-28T03:08:06;17.50;99.90
25046;DHT22;13044;49.304;12.840;2023-07-28T03:10:33;17.60;99.90
25046;DHT22;13044;49.304;12.840;2023-07-28T03:13:00;17.50;99.90
25046;DHT22;13044;49.304;12.840;2023-07-28T03:15:27;17.50;99.90
25046;DHT22;13044;49.304;12.840;2023-07-28T03:17:54;17.60;99.90
25046;DHT22;13044;49.304;12.840;2023-07-28T03:20:21;17.60;99.90
25046;DHT22;13044;49.304;12.840;2023-07-28T03:22:48;17.60;99.90
25046;DHT22;13044;49.304;12.840;2023-07-28T03:25:15;17.60;99.90
25046;DHT22;13044;49.304;12.840;2023-07-28T03:27:42;17.60;99.90
25046;DHT22;13044;49.304;12.840;2023-07-28T03:30:09;17.60;99.90
25046;DHT22;13044;49.304;12.840;2023-07-28T03:32:39;17.60;99.90
25046;DHT22;13044;49.304;12.840;2023-07-28T03:35:07;17.60;99.90
25046;DHT22;13044;49.304;12.840;2023-07-28T03:37:34;17.60;99.90
25046;DHT22;13044;49.304;12.840;2023-07-28T03:40:01;17.60;99.90
25046;DHT22;13044;49.304;12.840;2023-07-28T03:42:28;17.60;99.90
25046;DHT22;13044;49.304;12.840;2023-07-28T03:44:55;17.60;99.90
25046;DHT22;13044;49.304;12.840;2023-07-28T03:47:22;17.60;99.90
25046;DHT22;13044;49.304;12.840;2023-07-28T03:49:49;17.60;99.90
25046;DHT22;13044;49.304;12.840;2023-07-28T03:52:15;17.60;99.90
25046;DHT22;13044;49.304;12.840;2023-07-28T03:54:42;17.60;99.90
25046;DHT22;13044;49.304;12.840;2023-07-28T03:57:09;17.60;99.90
25046;DHT22;13044;49.304;12.840;2023-07-28T03:59:36;17.60;99.90
25046;DHT22;13044;49.304;12.840;2023-07-28T04:02:03;17.60;99.90
25046;DHT22;13044;49.304;12.840;2023-07-28T04:04:30;17.50;99.90
25046;DHT22;13044;49.304;12.840;2023-07-28T04:06:57;17.50;99.90
25046;DHT22;13044;49.304;12.840;2023-07-28T04:09:24;17.50;99.90
25046;DHT22;13044;49.304;12.840;2023-07-28T04:11:51;17.50;99.90
25046;DHT22;13044;49.304;12.840;2023-07-28T04:14:18;17.50;99.90
25046;DHT22;13044;49.304;12.840;2023-07-28T04:16:45;17.50;99.90
25046;DHT22;13044;49.304;12.840;2023-07-28T04:19:12;17.50;99.90
25046;DHT22;13044;49.304;12.840;2023-07-28T04:21:39;17.50;99.90
25046;DHT22;13044;49.304;12.840;2023-07-28T04:24:08;17.50;99.90
25046;DHT22;13044;49.304;12.840;2023-07-28T04:26:35;17.50;99.90
25046;DHT22;13044;49.304;12.840;2023-07-28T04:29:03;17.50;99.90
25046;DHT22;13044;49.304;12.840;2023-07-28T04:31:30;17.50;99.90
25046;DHT22;13044;49.304;12.840;2023-07-28T04:33:57;17.60;99.90
25046;DHT22;13044;49.304;12.840;2023-07-28T04:36:24;17.60;99.90
25046;DHT22;13044;49.304;12.840;2023-07-28T04:38:50;17.60;99.90
25046;DHT22;13044;49.304;12.840;2023-07-28T04:41:17;17.60;99.90
25046;DHT22;13044;49.304;12.840;2023-07-28T04:43:44;17.60;99.90
25046;DHT22;13044;49.304;12.840;2023-07-28T04:46:11;17.60;99.90
25046;DHT22;13044;49.304;12.840;2023-07-28T04:48:38;17.60;99.90
25046;DHT22;13044;49.304;12.840;2023-07-28T04:51:05;17.60;99.90
25046;DHT22;13044;49.304;12.840;2023-07-28T04:53:32;17.60;99.90
25046;DHT22;13044;49.304;12.840;2023-07-28T04:55:59;17.60;99.90
25046;DHT22;13044;49.304;12.840;2023-07-28T04:58:26;17.60;99.90
25046;DHT22;13044;49.304;12.840;2023-07-28T05:00:53;17.60;99.90
25046;DHT22;13044;49.304;12.840;2023-07-28T05:03:20;17.60;99.90
25046;DHT22;13044;49.304;12.840;2023-07-28T05:05:47;17.70;99.90
25046;DHT22;13044;49.304;12.840;2023-07-28T05:08:14;17.70;99.90
25046;DHT22;13044;49.304;12.840;2023-07-28T05:10:41;17.60;99.90
25046;DHT22;13044;49.304;12.840;2023-07-28T05:13:09;17.60;99.90
25046;DHT22;13044;49.304;12.840;2023-07-28T05:15:36;17.60;99.90
25046;DHT22;13044;49.304;12.840;2023-07-28T05:18:03;17.60;99.90
25046;DHT22;13044;49.304;12.840;2023-07-28T05:20:30;17.60;99.90
25046;DHT22;13044;49.304;12.840;2023-07-28T05:22:57;17.70;99.90
25046;DHT22;13044;49.304;12.840;2023-07-28T05:25:24;17.70;99.90
25046;DHT22;13044;49.304;12.840;2023-07-28T05:27:51;17.70;99.90
25046;DHT22;13044;49.304;12.840;2023-07-28T05:30:17;17.70;99.90
25046;DHT22;13044;49.304;12.840;2023-07-28T05:32:44;17.70;99.90
25046;DHT22;13044;49.304;12.840;2023-07-28T05:35:13;17.70;99.90
25046;DHT22;13044;49.304;12.840;2023-07-28T05:37:41;17.80;99.90
25046;DHT22;13044;49.304;12.840;2023-07-28T05:40:09;17.80;99.90
25046;DHT22;13044;49.304;12.840;2023-07-28T05:42:36;17.80;99.90
25046;DHT22;13044;49.304;12.840;2023-07-28T05:45:03;17.80;99.90
25046;DHT22;13044;49.304;12.840;2023-07-28T05:47:30;17.80;99.90
25046;DHT22;13044;49.304;12.840;2023-07-28T05:49:57;17.80;99.90
25046;DHT22;13044;49.304;12.840;2023-07-28T05:52:24;17.80;99.90
25046;DHT22;13044;49.304;12.840;2023-07-28T05:54:51;17.80;99.90
25046;DHT22;13044;49.304;12.840;2023-07-28T05:57:18;17.80;99.90
25046;DHT22;13044;49.304;12.840;2023-07-28T05:59:45;17.80;99.90
25046;DHT22;13044;49.304;12.840;2023-07-28T06:02:12;17.90;99.90
25046;DHT22;13044;49.304;12.840;2023-07-28T06:04:39;17.90;99.90
25046;DHT22;13044;49.304;12.840;2023-07-28T06:07:06;17.90;99.90
25046;DHT22;13044;49.304;12.840;2023-07-28T06:09:33;17.90;99.90
25046;DHT22;13044;49.304;12.840;2023-07-28T06:12:00;17.90;99.90
25046;DHT22;13044;49.304;12.840;2023-07-28T06:14:26;17.90;99.90
25046;DHT22;13044;49.304;12.840;2023-07-28T06:16:53;17.90;99.90
25046;DHT22;13044;49.304;12.840;2023-07-28T06:19:20;17.90;99.90
25046;DHT22;13044;49.304;12.840;2023-07-28T06:21:51;17.90;99.90
25046;DHT22;13044;49.304;12.840;2023-07-28T06:24:18;17.90;99.90
25046;DHT22;13044;49.304;12.840;2023-07-28T06:26:45;18.00;99.90
25046;DHT22;13044;49.304;12.840;2023-07-28T06:29:12;18.00;99.90
25046;DHT22;13044;49.304;12.840;2023-07-28T06:31:39;18.00;99.90
25046;DHT22;13044;49.304;12.840;2023-07-28T06:34:06;18.10;99.90
25046;DHT22;13044;49.304;12.840;2023-07-28T06:36:33;18.10;99.90
25046;DHT22;13044;49.304;12.840;2023-07-28T06:39:00;18.10;99.90
25046;DHT22;13044;49.304;12.840;2023-07-28T06:41:27;18.10;99.90
25046;DHT22;13044;49.304;12.840;2023-07-28T06:43:53;18.10;99.90
25046;DHT22;13044;49.304;12.840;2023-07-28T06:46:21;18.10;99.90
25046;DHT22;13044;49.304;12.840;2023-07-28T06:48:48;18.10;99.90
25046;DHT22;13044;49.304;12.840;2023-07-28T06:51:15;18.10;99.90
25046;DHT22;13044;49.304;12.840;2023-07-28T06:53:42;18.10;99.90
25046;DHT22;13044;49.304;12.840;2023-07-28T06:56:09;18.00;99.90
25046;DHT22;13044;49.304;12.840;2023-07-28T06:58:36;18.10;99.90
25046;DHT22;13044;49.304;12.840;2023-07-28T07:01:03;18.10;99.90
25046;DHT22;13044;49.304;12.840;2023-07-28T07:03:29;18.20;99.90
25046;DHT22;13044;49.304;12.840;2023-07-28T07:05:56;18.20;99.90
25046;DHT22;13044;49.304;12.840;2023-07-28T07:08:23;18.20;99.90
25046;DHT22;13044;49.304;12.840;2023-07-28T07:10:52;18.20;99.90
25046;DHT22;13044;49.304;12.840;2023-07-28T07:13:19;18.20;99.90
25046;DHT22;13044;49.304;12.840;2023-07-28T07:15:46;18.30;99.90
25046;DHT22;13044;49.304;12.840;2023-07-28T07:18:13;18.30;99.90
25046;DHT22;13044;49.304;12.840;2023-07-28T07:20:41;18.30;99.90
25046;DHT22;13044;49.304;12.840;2023-07-28T07:23:08;18.30;99.90
25046;DHT22;13044;49.304;12.840;2023-07-28T07:25:35;18.30;99.90
25046;DHT22;13044;49.304;12.840;2023-07-28T07:28:02;18.30;99.90
25046;DHT22;13044;49.304;12.840;2023-07-28T07:30:31;18.40;99.90
25046;DHT22;13044;49.304;12.840;2023-07-28T07:32:59;18.40;99.90
25046;DHT22;13044;49.304;12.840;2023-07-28T07:35:26;18.50;99.90
25046;DHT22;13044;49.304;12.840;2023-07-28T07:37:53;18.50;99.90
25046;DHT22;13044;49.304;12.840;2023-07-28T07:40:20;18.50;99.90
25046;DHT22;13044;49.304;12.840;2023-07-28T07:42:48;18.50;99.90
25046;DHT22;13044;49.304;12.840;2023-07-28T07:45:15;18.60;99.90
25046;DHT22;13044;49.304;12.840;2023-07-28T07:47:42;18.60;99.90
25046;DHT22;13044;49.304;12.840;2023-07-28T07:50:10;18.70;99.90
25046;DHT22;13044;49.304;12.840;2023-07-28T07:52:38;18.70;99.90
25046;DHT22;13044;49.304;12.840;2023-07-28T07:55:09;18.80;99.90
25046;DHT22;13044;49.304;12.840;2023-07-28T07:57:40;18.90;99.90
25046;DHT22;13044;49.304;12.840;2023-07-28T08:00:07;18.90;99.90
25046;DHT22;13044;49.304;12.840;2023-07-28T08:02:35;18.90;99.90
25046;DHT22;13044;49.304;12.840;2023-07-28T08:05:02;19.00;99.90
25046;DHT22;13044;49.304;12.840;2023-07-28T08:07:29;19.00;99.90
25046;DHT22;13044;49.304;12.840;2023-07-28T08:09:56;19.00;99.90
25046;DHT22;13044;49.304;12.840;2023-07-28T08:12:23;19.00;99.90
25046;DHT22;13044;49.304;12.840;2023-07-28T08:14:51;19.10;99.90
25046;DHT22;13044;49.304;12.840;2023-07-28T08:17:19;19.10;99.90
25046;DHT22;13044;49.304;12.840;2023-07-28T08:19:46;19.10;99.90
25046;DHT22;13044;49.304;12.840;2023-07-28T08:22:13;19.10;99.90
25046;DHT22;13044;49.304;12.840;2023-07-28T08:24:40;19.10;99.90
25046;DHT22;13044;49.304;12.840;2023-07-28T08:27:07;19.20;99.90
25046;DHT22;13044;49.304;12.840;2023-07-28T08:29:34;19.20;99.90
25046;DHT22;13044;49.304;12.840;2023-07-28T08:32:01;19.20;99.90
25046;DHT22;13044;49.304;12.840;2023-07-28T08:34:28;19.20;99.90
25046;DHT22;13044;49.304;12.840;2023-07-28T08:36:55;19.20;99.90
25046;DHT22;13044;49.304;12.840;2023-07-28T08:39:22;19.30;99.90
25046;DHT22;13044;49.304;12.840;2023-07-28T08:41:58;19.30;99.90
25046;DHT22;13044;49.304;12.840;2023-07-28T08:44:26;19.30;99.90
25046;DHT22;13044;49.304;12.840;2023-07-28T08:46:54;19.30;99.90
25046;DHT22;13044;49.304;12.840;2023-07-28T08:49:21;19.30;99.90
25046;DHT22;13044;49.304;12.840;2023-07-28T08:51:52;19.40;99.90
25046;DHT22;13044;49.304;12.840;2023-07-28T08:54:23;19.30;99.90
25046;DHT22;13044;49.304;12.840;2023-07-28T08:56:50;19.40;99.90
25046;DHT22;13044;49.304;12.840;2023-07-28T08:59:23;19.40;99.90
25046;DHT22;13044;49.304;12.840;2023-07-28T09:01:53;19.40;99.90
25046;DHT22;13044;49.304;12.840;2023-07-28T09:04:23;19.40;99.90
25046;DHT22;13044;49.304;12.840;2023-07-28T09:06:51;19.40;99.90
25046;DHT22;13044;49.304;12.840;2023-07-28T09:09:21;19.50;99.90
25046;DHT22;13044;49.304;12.840;2023-07-28T09:11:53;19.50;99.90
25046;DHT22;13044;49.304;12.840;2023-07-28T09:14:22;19.50;99.90
25046;DHT22;13044;49.304;12.840;2023-07-28T09:16:52;19.60;99.90
25046;DHT22;13044;49.304;12.840;2023-07-28T09:19:20;19.60;99.90
25046;DHT22;13044;49.304;12.840;2023-07-28T09:21:58;19.70;99.90
25046;DHT22;13044;49.304;12.840;2023-07-28T09:24:33;19.70;99.90
25046;DHT22;13044;49.304;12.840;2023-07-28T09:27:01;19.70;99.90
25046;DHT22;13044;49.304;12.840;2023-07-28T09:29:28;19.70;99.90
25046;DHT22;13044;49.304;12.840;2023-07-28T09:32:05;19.70;99.90
25046;DHT22;13044;49.304;12.840;2023-07-28T09:34:33;19.70;99.90
25046;DHT22;13044;49.304;12.840;2023-07-28T09:37:00;19.70;99.90
25046;DHT22;13044;49.304;12.840;2023-07-28T09:39:28;19.70;99.90
25046;DHT22;13044;49.304;12.840;2023-07-28T09:41:55;19.60;99.90
25046;DHT22;13044;49.304;12.840;2023-07-28T09:44:25;19.50;99.90
25046;DHT22;13044;49.304;12.840;2023-07-28T09:46:54;19.50;99.90
25046;DHT22;13044;49.304;12.840;2023-07-28T09:49:34;19.50;99.90
25046;DHT22;13044;49.304;12.840;2023-07-28T09:52:05;19.50;99.90
25046;DHT22;13044;49.304;12.840;2023-07-28T09:54:39;19.40;99.90
25046;DHT22;13044;49.304;12.840;2023-07-28T09:57:12;19.30;99.90
25046;DHT22;13044;49.304;12.840;2023-07-28T09:59:41;19.40;99.90
25046;DHT22;13044;49.304;12.840;2023-07-28T10:02:09;19.30;99.90
25046;DHT22;13044;49.304;12.840;2023-07-28T10:04:37;19.30;99.90
25046;DHT22;13044;49.304;12.840;2023-07-28T10:07:05;19.30;99.90
25046;DHT22;13044;49.304;12.840;2023-07-28T10:09:33;19.30;99.90
25046;DHT22;13044;49.304;12.840;2023-07-28T10:12:01;19.40;99.90
25046;DHT22;13044;49.304;12.840;2023-07-28T10:14:34;19.40;99.90
25046;DHT22;13044;49.304;12.840;2023-07-28T10:17:05;19.40;99.90
25046;DHT22;13044;49.304;12.840;2023-07-28T10:19:36;19.50;99.90
25046;DHT22;13044;49.304;12.840;2023-07-28T10:22:11;19.50;99.90
25046;DHT22;13044;49.304;12.840;2023-07-28T10:24:52;19.60;99.90
25046;DHT22;13044;49.304;12.840;2023-07-28T10:27:39;19.70;99.90
25046;DHT22;13044;49.304;12.840;2023-07-28T10:30:12;19.70;99.90
25046;DHT22;13044;49.304;12.840;2023-07-28T10:32:45;19.80;99.90
25046;DHT22;13044;49.304;12.840;2023-07-28T10:37:48;19.80;99.90
25046;DHT22;13044;49.304;12.840;2023-07-28T10:42:55;19.90;99.90
25046;DHT22;13044;49.304;12.840;2023-07-28T10:45:23;19.90;99.90
25046;DHT22;13044;49.304;12.840;2023-07-28T10:47:53;19.90;99.90
25046;DHT22;13044;49.304;12.840;2023-07-28T10:50:23;20.00;99.90
25046;DHT22;13044;49.304;12.840;2023-07-28T10:52:50;20.00;99.90
25046;DHT22;13044;49.304;12.840;2023-07-28T10:55:19;20.10;99.90
25046;DHT22;13044;49.304;12.840;2023-07-28T10:57:48;20.20;99.90
25046;DHT22;13044;49.304;12.840;2023-07-28T11:00:17;20.20;99.90
25046;DHT22;13044;49.304;12.840;2023-07-28T11:02:46;20.40;99.90
25046;DHT22;13044;49.304;12.840;2023-07-28T11:05:21;20.60;99.90
25046;DHT22;13044;49.304;12.840;2023-07-28T11:07:51;20.70;99.90
25046;DHT22;13044;49.304;12.840;2023-07-28T11:10:20;20.80;99.90
25046;DHT22;13044;49.304;12.840;2023-07-28T11:12:50;20.90;99.90
25046;DHT22;13044;49.304;12.840;2023-07-28T11:15:18;20.90;99.90
25046;DHT22;13044;49.304;12.840;2023-07-28T11:17:47;21.00;99.90
25046;DHT22;13044;49.304;12.840;2023-07-28T11:20:20;21.00;99.90
25046;DHT22;13044;49.304;12.840;2023-07-28T11:22:52;21.00;99.90
25046;DHT22;13044;49.304;12.840;2023-07-28T11:25:28;21.10;99.90
25046;DHT22;13044;49.304;12.840;2023-07-28T11:27:56;21.20;99.90
25046;DHT22;13044;49.304;12.840;2023-07-28T11:30:24;21.20;99.90
25046;DHT22;13044;49.304;12.840;2023-07-28T11:32:52;21.30;99.90
25046;DHT22;13044;49.304;12.840;2023-07-28T11:35:21;21.30;99.90
25046;DHT22;13044;49.304;12.840;2023-07-28T11:37:52;21.30;99.90
25046;DHT22;13044;49.304;12.840;2023-07-28T11:40:21;21.40;99.90
25046;DHT22;13044;49.304;12.840;2023-07-28T11:42:53;21.40;99.90
25046;DHT22;13044;49.304;12.840;2023-07-28T11:45:22;21.60;99.90
25046;DHT22;13044;49.304;12.840;2023-07-28T11:47:59;21.80;99.90
25046;DHT22;13044;49.304;12.840;2023-07-28T11:50:38;21.90;99.90
25046;DHT22;13044;49.304;12.840;2023-07-28T11:53:07;21.90;99.90
25046;DHT22;13044;49.304;12.840;2023-07-28T11:55:38;21.90;99.90
25046;DHT22;13044;49.304;12.840;2023-07-28T11:58:06;22.00;99.90
25046;DHT22;13044;49.304;12.840;2023-07-28T12:00:36;22.00;99.90
25046;DHT22;13044;49.304;12.840;2023-07-28T12:03:05;22.00;99.90
25046;DHT22;13044;49.304;12.840;2023-07-28T12:05:41;22.00;99.90
25046;DHT22;13044;49.304;12.840;2023-07-28T12:08:39;22.00;99.90
25046;DHT22;13044;49.304;12.840;2023-07-28T12:11:12;21.90;99.90
25046;DHT22;13044;49.304;12.840;2023-07-28T12:13:50;22.00;99.90
25046;DHT22;13044;49.304;12.840;2023-07-28T12:16:40;22.00;99.90
25046;DHT22;13044;49.304;12.840;2023-07-28T12:19:14;22.00;99.90
25046;DHT22;13044;49.304;12.840;2023-07-28T12:21:41;22.00;99.90
25046;DHT22;13044;49.304;12.840;2023-07-28T12:24:08;21.90;99.90
25046;DHT22;13044;49.304;12.840;2023-07-28T12:26:35;21.90;99.90
25046;DHT22;13044;49.304;12.840;2023-07-28T12:29:06;21.90;99.90
25046;DHT22;13044;49.304;12.840;2023-07-28T12:31:37;22.00;99.90
25046;DHT22;13044;49.304;12.840;2023-07-28T12:34:07;22.00;99.90
25046;DHT22;13044;49.304;12.840;2023-07-28T12:36:34;22.10;99.90
25046;DHT22;13044;49.304;12.840;2023-07-28T12:39:04;22.20;99.90
25046;DHT22;13044;49.304;12.840;2023-07-28T12:41:35;22.30;99.90
25046;DHT22;13044;49.304;12.840;2023-07-28T12:44:05;22.50;99.90
25046;DHT22;13044;49.304;12.840;2023-07-28T12:46:32;22.60;99.90
25046;DHT22;13044;49.304;12.840;2023-07-28T12:49:00;22.80;99.90
25046;DHT22;13044;49.304;12.840;2023-07-28T12:51:27;22.90;99.90
25046;DHT22;13044;49.304;12.840;2023-07-28T12:53:57;22.90;99.90
25046;DHT22;13044;49.304;12.840;2023-07-28T12:56:25;22.90;99.90
25046;DHT22;13044;49.304;12.840;2023-07-28T12:58:55;23.00;99.90
25046;DHT22;13044;49.304;12.840;2023-07-28T13:01:24;23.10;99.90
25046;DHT22;13044;49.304;12.840;2023-07-28T13:03:51;23.20;99.90
25046;DHT22;13044;49.304;12.840;2023-07-28T13:06:21;23.30;99.90
25046;DHT22;13044;49.304;12.840;2023-07-28T13:08:48;23.40;99.90
25046;DHT22;13044;49.304;12.840;2023-07-28T13:11:18;23.40;99.90
25046;DHT22;13044;49.304;12.840;2023-07-28T13:13:45;23.50;99.90
25046;DHT22;13044;49.304;12.840;2023-07-28T13:16:12;23.70;99.90
25046;DHT22;13044;49.304;12.840;2023-07-28T13:18:39;23.70;99.90
25046;DHT22;13044;49.304;12.840;2023-07-28T13:21:07;23.70;99.90
25046;DHT22;13044;49.304;12.840;2023-07-28T13:23:34;23.80;99.90
25046;DHT22;13044;49.304;12.840;2023-07-28T13:26:00;23.80;99.90
25046;DHT22;13044;49.304;12.840;2023-07-28T13:28:31;23.80;99.90
25046;DHT22;13044;49.304;12.840;2023-07-28T13:30:58;23.80;99.90
25046;DHT22;13044;49.304;12.840;2023-07-28T13:33:25;23.80;99.90
25046;DHT22;13044;49.304;12.840;2023-07-28T13:35:52;23.70;99.90
25046;DHT22;13044;49.304;12.840;2023-07-28T13:38:19;23.80;99.90
25046;DHT22;13044;49.304;12.840;2023-07-28T13:40:46;23.80;99.90
25046;DHT22;13044;49.304;12.840;2023-07-28T13:43:12;23.80;99.90
25046;DHT22;13044;49.304;12.840;2023-07-28T13:45:43;23.80;99.90
25046;DHT22;13044;49.304;12.840;2023-07-28T13:48:10;23.70;99.90
25046;DHT22;13044;49.304;12.840;2023-07-28T13:50:51;23.70;99.90
25046;DHT22;13044;49.304;12.840;2023-07-28T13:53:21;23.60;99.90
25046;DHT22;13044;49.304;12.840;2023-07-28T13:55:51;23.60;99.90
25046;DHT22;13044;49.304;12.840;2023-07-28T13:58:21;23.60;99.90
25046;DHT22;13044;49.304;12.840;2023-07-28T14:00:48;23.70;99.90
25046;DHT22;13044;49.304;12.840;2023-07-28T14:03:15;23.70;99.90
25046;DHT22;13044;49.304;12.840;2023-07-28T14:05:44;23.80;99.90
25046;DHT22;13044;49.304;12.840;2023-07-28T14:08:11;23.80;99.90
25046;DHT22;13044;49.304;12.840;2023-07-28T14:10:38;23.80;99.90
25046;DHT22;13044;49.304;12.840;2023-07-28T14:13:05;23.90;99.90
25046;DHT22;13044;49.304;12.840;2023-07-28T14:15:32;23.80;99.90
25046;DHT22;13044;49.304;12.840;2023-07-28T14:18:00;23.80;99.90
25046;DHT22;13044;49.304;12.840;2023-07-28T14:20:27;23.80;99.90
25046;DHT22;13044;49.304;12.840;2023-07-28T14:22:54;23.80;99.90
25046;DHT22;13044;49.304;12.840;2023-07-28T14:25:21;23.80;99.90
25046;DHT22;13044;49.304;12.840;2023-07-28T14:27:48;23.90;99.90
25046;DHT22;13044;49.304;12.840;2023-07-28T14:30:15;23.90;99.90
25046;DHT22;13044;49.304;12.840;2023-07-28T14:32:42;23.80;99.90
25046;DHT22;13044;49.304;12.840;2023-07-28T14:35:09;23.80;99.90
25046;DHT22;13044;49.304;12.840;2023-07-28T14:37:36;23.80;99.90
25046;DHT22;13044;49.304;12.840;2023-07-28T14:40:03;23.80;99.90
25046;DHT22;13044;49.304;12.840;2023-07-28T14:42:30;23.90;99.90
25046;DHT22;13044;49.304;12.840;2023-07-28T14:44:56;23.90;99.90
25046;DHT22;13044;49.304;12.840;2023-07-28T14:47:23;23.90;99.90
25046;DHT22;13044;49.304;12.840;2023-07-28T14:49:50;23.90;99.90
25046;DHT22;13044;49.304;12.840;2023-07-28T14:52:17;23.90;99.90
25046;DHT22;13044;49.304;12.840;2023-07-28T14:54:44;23.90;99.90
25046;DHT22;13044;49.304;12.840;2023-07-28T14:57:11;23.90;99.90
25046;DHT22;13044;49.304;12.840;2023-07-28T14:59:58;23.90;99.90
25046;DHT22;13044;49.304;12.840;2023-07-28T15:02:25;24.00;99.90
25046;DHT22;13044;49.304;12.840;2023-07-28T15:04:52;24.00;99.90
25046;DHT22;13044;49.304;12.840;2023-07-28T15:07:19;24.00;99.90
25046;DHT22;13044;49.304;12.840;2023-07-28T15:09:46;24.00;99.90
25046;DHT22;13044;49.304;12.840;2023-07-28T15:12:13;24.00;99.90
25046;DHT22;13044;49.304;12.840;2023-07-28T15:14:40;24.00;99.90
25046;DHT22;13044;49.304;12.840;2023-07-28T15:17:07;24.00;99.90
25046;DHT22;13044;49.304;12.840;2023-07-28T15:19:34;24.00;99.90
25046;DHT22;13044;49.304;12.840;2023-07-28T15:22:00;24.00;99.90
25046;DHT22;13044;49.304;12.840;2023-07-28T15:24:27;24.00;99.90
25046;DHT22;13044;49.304;12.840;2023-07-28T15:26:54;24.00;99.90
25046;DHT22;13044;49.304;12.840;2023-07-28T15:29:21;24.00;99.90
25046;DHT22;13044;49.304;12.840;2023-07-28T15:31:48;24.00;99.90